Terminal Aerodrome Forecast
Issued by NWS

Home | Current Version | Previous Version | Text Only | Print | Product List | Glossary On
Versions: 1 2 3 4 5 6 7 8 9 10 11 12 13 14 15 16 17 18 19 20
000
FTUS43 KDMX 270538
TAFMCW
TAF
KMCW 270538Z 2706/2806 31014KT 5SM BR BKN006 OVC013
     FM271400 31013G19KT P6SM OVC012
     FM271800 29013G20KT P6SM BKN021
     FM272000 29013G19KT P6SM SCT030
     FM280000 30009KT P6SM FEW040
     FM280300 33005KT P6SM FEW080=

USA.gov is the U.S. government's official web portal to all federal, state and local government web resources and services.